createdAt,value
2019-05-07T00:01:34.244Z,44.43
2019-05-07T00:04:01.988Z,44.03
2019-05-07T00:06:29.497Z,40.60
2019-05-07T00:08:57.108Z,48.27
2019-05-07T00:11:24.834Z,52.10
2019-05-07T00:13:52.403Z,59.93
2019-05-07T00:16:19.750Z,53.30
2019-05-07T00:18:47.026Z,54.10
2019-05-07T00:21:14.417Z,53.87
2019-05-07T00:23:43.191Z,54.83
2019-05-07T00:26:13.083Z,50.17
2019-05-07T00:28:40.125Z,56.07
2019-05-07T00:31:07.617Z,52.57
2019-05-07T00:33:35.881Z,52.37
2019-05-07T00:36:08.996Z,59.27
2019-05-07T00:38:38.693Z,52.37
2019-05-07T00:41:22.928Z,55.97
2019-05-07T00:43:52.790Z,54.60
2019-05-07T00:46:22.852Z,59.53
2019-05-07T00:48:50.210Z,63.07
2019-05-07T00:51:33.361Z,67.67
2019-05-07T00:54:02.812Z,61.27
2019-05-07T00:56:30.210Z,72.50
2019-05-07T00:58:57.678Z,68.30
2019-05-07T01:01:24.951Z,71.93
2019-05-07T01:03:53.355Z,69.57
2019-05-07T01:06:22.756Z,74.67
2019-05-07T01:08:51.954Z,73.63
2019-05-07T01:11:19.256Z,72.87
2019-05-07T01:13:46.514Z,68.27
2019-05-07T01:16:13.907Z,67.23
2019-05-07T01:18:42.036Z,67.40
2019-05-07T01:21:09.615Z,64.63
2019-05-07T01:23:36.873Z,56.70
2019-05-07T01:26:04.140Z,59.07
2019-05-07T01:28:34.462Z,66.83
2019-05-07T01:31:02.215Z,75.47
2019-05-07T01:33:38.745Z,83.63
2019-05-07T01:36:24.362Z,87.37
2019-05-07T01:38:52.283Z,97.20
2019-05-07T01:41:19.742Z,97.83
2019-05-07T01:43:47.060Z,111.23
2019-05-07T01:46:14.440Z,101.03
2019-05-07T01:48:42.994Z,117.60
2019-05-07T01:51:12.843Z,141.53
2019-05-07T01:53:42.851Z,142.30
2019-05-07T01:56:12.412Z,146.90
2019-05-07T01:58:42.478Z,129.37
2019-05-07T02:01:10.236Z,138.87
2019-05-07T02:03:57.269Z,131.23
2019-05-07T02:06:48.156Z,179.30
2019-05-07T02:09:38.268Z,162.73
2019-05-07T02:12:24.043Z,105.40
2019-05-07T02:14:53.306Z,127.83
2019-05-07T02:17:22.799Z,164.70
2019-05-07T02:19:52.630Z,178.30
2019-05-07T02:22:23.552Z,172.17
2019-05-07T02:24:52.386Z,125.73
2019-05-07T04:45:04.923Z,104.47
2019-05-07T04:47:42.075Z,109.07
2019-05-07T04:50:03.760Z,139.07
2019-05-07T04:52:35.160Z,164.57
2019-05-07T04:55:04.070Z,121.00
2019-05-07T04:57:33.129Z,125.93
2019-05-07T05:00:03.471Z,160.33
2019-05-07T05:02:43.592Z,183.07
2019-05-07T05:05:13.181Z,193.70
2019-05-07T05:07:42.875Z,179.53
2019-05-07T05:10:10.100Z,217.97
2019-05-07T05:12:37.412Z,165.70
2019-05-07T05:15:04.917Z,204.30
2019-05-07T05:17:46.786Z,201.73
2019-05-07T05:20:03.632Z,213.73
2019-05-07T05:22:53.090Z,178.03
2019-05-07T05:25:27.755Z,170.87
2019-05-07T05:27:55.124Z,167.83
2019-05-07T05:30:38.101Z,139.73
2019-05-07T05:33:05.613Z,115.07
2019-05-07T05:35:32.885Z,111.87
2019-05-07T05:38:00.170Z,100.13
2019-05-07T05:40:29.208Z,68.67
2019-05-07T05:43:06.262Z,55.87
2019-05-07T05:45:34.505Z,47.27
2019-05-07T05:48:07.455Z,38.00
2019-05-07T05:50:38.030Z,31.83
2019-05-07T05:53:15.012Z,31.07
2019-05-07T05:55:42.867Z,31.17
2019-05-07T05:58:24.270Z,23.10
2019-05-07T06:01:17.432Z,26.07
2019-05-07T06:04:13.112Z,27.67
2019-05-07T06:07:01.132Z,23.67
2019-05-07T06:09:29.224Z,20.33
2019-05-07T06:12:07.571Z,22.67
2019-05-07T06:14:39.105Z,19.73
2019-05-07T06:17:37.768Z,24.10
2019-05-07T06:20:34.151Z,20.63
2019-05-07T06:23:22.296Z,17.00
2019-05-07T06:25:49.030Z,16.63
2019-05-07T06:28:16.277Z,14.17
2019-05-07T06:30:43.543Z,14.13
2019-05-07T06:33:12.399Z,15.13
2019-05-07T06:35:39.890Z,14.50
2019-05-07T06:38:08.749Z,12.97
2019-05-07T06:40:45.641Z,13.07
2019-05-07T06:43:44.768Z,14.80
2019-05-07T06:46:12.622Z,15.97
2019-05-07T06:48:43.672Z,17.90
2019-05-07T06:51:09.570Z,20.73
2019-05-07T06:53:36.823Z,16.30
2019-05-07T06:56:04.235Z,14.00
2019-05-07T06:58:41.874Z,15.23
2019-05-07T07:01:17.415Z,19.17
2019-05-07T07:04:19.377Z,18.70
2019-05-07T07:07:22.474Z,20.87
2019-05-07T07:09:51.930Z,22.97
2019-05-07T07:12:25.545Z,21.23
2019-05-07T07:14:51.817Z,16.93
2019-05-07T07:17:22.163Z,16.33
2019-05-07T07:19:49.406Z,21.17
2019-05-07T07:22:16.815Z,18.37
2019-05-07T07:24:44.146Z,15.90
2019-05-07T07:27:13.214Z,13.10
2019-05-07T07:29:47.367Z,11.27
2019-05-07T07:32:16.579Z,12.73
2019-05-07T07:34:47.286Z,17.60
2019-05-07T07:37:26.775Z,15.00
2019-05-07T07:40:12.853Z,15.03
2019-05-07T07:42:42.540Z,13.13
2019-05-07T07:45:16.765Z,11.13
2019-05-07T07:47:44.723Z,17.57
2019-05-07T07:50:12.965Z,7.43
2019-05-07T07:52:42.046Z,10.97
2019-05-07T07:55:12.636Z,11.53
2019-05-07T07:57:55.562Z,10.33
2019-05-07T08:00:32.873Z,13.67
2019-05-07T08:03:03.032Z,9.43
2019-05-07T08:05:32.534Z,11.00
2019-05-07T08:08:02.148Z,12.83
2019-05-07T08:10:29.131Z,11.43
2019-05-07T08:12:56.406Z,15.87
2019-05-07T08:15:24.747Z,15.60
2019-05-07T08:17:52.288Z,16.53
2019-05-07T08:20:22.052Z,16.27
2019-05-07T08:22:48.861Z,16.07
2019-05-07T08:25:16.179Z,16.07
2019-05-07T08:27:43.477Z,16.93
2019-05-07T08:30:14.011Z,16.90
2019-05-07T08:32:55.354Z,16.67
2019-05-07T08:35:42.189Z,9.30
2019-05-07T08:38:09.493Z,9.93
2019-05-07T08:40:38.201Z,11.27
2019-05-07T08:43:06.231Z,10.40
2019-05-07T08:45:53.106Z,10.80
2019-05-07T08:48:25.409Z,12.63
2019-05-07T08:50:52.849Z,13.67
2019-05-07T08:53:22.361Z,19.43
2019-05-07T08:55:49.566Z,16.47
2019-05-07T08:58:16.978Z,13.13
2019-05-07T09:00:45.265Z,13.97
2019-05-07T09:03:22.083Z,14.23
2019-05-07T09:05:45.509Z,6.50
2019-05-07T09:08:12.950Z,5.43
2019-05-07T09:10:42.205Z,5.77
2019-05-07T09:13:09.467Z,10.50
2019-05-07T09:15:37.308Z,13.33
2019-05-07T09:18:04.554Z,8.60
2019-05-07T09:20:32.257Z,17.83
2019-05-07T09:23:02.020Z,7.97
2019-05-07T09:25:29.062Z,8.47
2019-05-07T09:27:56.537Z,8.07
2019-05-07T09:30:46.408Z,7.30
2019-05-07T09:33:24.196Z,10.87
2019-05-07T09:35:53.159Z,9.67
2019-05-07T09:38:22.307Z,8.17
2019-05-07T09:40:49.858Z,9.43
2019-05-07T09:43:17.227Z,8.63
2019-05-07T09:45:44.654Z,9.30
2019-05-07T09:48:12.178Z,8.23
2019-05-07T09:50:40.198Z,7.07
2019-05-07T09:53:07.590Z,8.13
2019-05-07T09:55:34.834Z,7.90
2019-05-07T09:58:02.226Z,9.87
2019-05-07T10:00:31.815Z,12.10
2019-05-07T10:02:59.066Z,10.77
2019-05-07T10:05:26.349Z,13.27
2019-05-07T10:07:53.568Z,11.27
2019-05-07T10:10:22.281Z,10.20
2019-05-07T10:13:01.712Z,11.07
2019-05-07T10:15:28.912Z,12.13
2019-05-07T10:18:08.100Z,12.30
2019-05-07T10:20:35.374Z,11.13
2019-05-07T10:23:02.780Z,10.70
2019-05-07T10:25:37.457Z,11.07
2019-05-07T10:28:04.883Z,10.07
2019-05-07T10:30:32.266Z,11.77
2019-05-07T10:33:01.652Z,9.10
2019-05-07T10:35:31.090Z,10.77
2019-05-07T10:37:57.906Z,11.00
2019-05-07T10:40:25.606Z,10.53
2019-05-07T10:42:52.923Z,11.37
2019-05-07T10:45:37.094Z,10.20
2019-05-07T10:48:12.304Z,9.10
2019-05-07T10:50:42.533Z,9.90
2019-05-07T10:53:09.918Z,13.17
2019-05-07T10:55:37.424Z,10.73
2019-05-07T10:58:04.910Z,10.13
2019-05-07T11:00:39.095Z,9.00
2019-05-07T11:03:08.703Z,11.30
2019-05-07T11:05:37.063Z,14.30
2019-05-07T11:08:05.441Z,11.43
2019-05-07T11:10:34.675Z,8.90
2019-05-07T11:13:02.544Z,10.40
2019-05-07T11:15:32.763Z,8.50
2019-05-07T11:18:13.940Z,9.23
2019-05-07T11:20:49.324Z,7.73
2019-05-07T11:23:11.308Z,7.77
2019-05-07T11:25:38.583Z,8.67
2019-05-07T11:28:05.932Z,9.10
2019-05-07T11:30:33.234Z,8.83
2019-05-07T11:33:02.488Z,8.50
2019-05-07T11:35:31.714Z,6.27
2019-05-07T11:37:59.068Z,8.33
2019-05-07T11:40:26.436Z,9.33
2019-05-07T11:43:16.249Z,8.07
2019-05-07T11:46:06.233Z,10.43
2019-05-07T11:48:36.527Z,9.00
2019-05-07T11:51:26.408Z,7.33
2019-05-07T11:54:13.446Z,8.97
2019-05-07T11:56:42.254Z,8.23
2019-05-07T11:59:09.947Z,7.40
2019-05-07T12:01:46.680Z,7.67
2019-05-07T12:04:08.879Z,6.80
2019-05-07T12:06:36.361Z,6.23
2019-05-07T12:09:06.339Z,6.83
2019-05-07T12:11:34.010Z,8.23
2019-05-07T12:14:01.998Z,7.77
2019-05-07T12:16:31.874Z,7.83
2019-05-07T12:18:59.055Z,6.63
2019-05-07T12:21:26.378Z,8.17
2019-05-07T12:23:53.631Z,7.10
2019-05-07T12:26:22.246Z,7.47
2019-05-07T12:28:49.705Z,7.47
2019-05-07T12:31:39.285Z,7.07
2019-05-07T12:34:19.401Z,7.03
2019-05-07T12:36:47.108Z,8.53
2019-05-07T12:39:14.462Z,7.17
2019-05-07T12:41:43.043Z,8.40
2019-05-07T12:44:12.771Z,6.90
2019-05-07T12:46:42.094Z,7.57
2019-05-07T12:49:09.175Z,7.67
2019-05-07T12:52:02.376Z,8.17
2019-05-07T12:54:37.551Z,7.73
2019-05-07T12:57:04.920Z,10.53
2019-05-07T12:59:32.358Z,8.47
2019-05-07T13:02:37.292Z,9.27
2019-05-07T13:04:54.739Z,7.03
2019-05-07T13:07:41.793Z,10.40
2019-05-07T13:10:09.477Z,8.33
2019-05-07T13:12:36.816Z,8.00
2019-05-07T13:15:05.382Z,8.13
2019-05-07T13:17:33.874Z,7.67
2019-05-07T13:20:03.777Z,7.20
2019-05-07T13:22:32.587Z,6.33
2019-05-07T13:25:02.154Z,6.93
2019-05-07T13:27:31.869Z,8.70
2019-05-07T13:29:59.141Z,7.13
2019-05-07T13:32:26.755Z,6.83
2019-05-07T13:34:55.265Z,5.87
2019-05-07T13:37:26.218Z,6.77
2019-05-07T13:39:58.365Z,8.70
2019-05-07T13:42:34.299Z,7.20
2019-05-07T13:45:31.797Z,7.20
2019-05-07T13:48:11.988Z,8.30
2019-05-07T13:50:39.219Z,9.17
2019-05-07T13:53:06.747Z,7.93
2019-05-07T13:55:34.140Z,9.07
2019-05-07T13:58:01.610Z,7.77
2019-05-07T14:00:34.448Z,9.17
2019-05-07T14:03:03.261Z,6.97
2019-05-07T14:05:32.360Z,10.77
2019-05-07T14:07:59.845Z,8.17
2019-05-07T14:10:27.507Z,7.77
2019-05-07T14:13:07.618Z,6.50
2019-05-07T14:15:24.241Z,11.77
2019-05-07T14:17:52.646Z,7.03
2019-05-07T14:20:22.199Z,6.77
2019-05-07T14:22:51.708Z,9.00
2019-05-07T14:25:21.850Z,6.67
2019-05-07T14:27:49.662Z,7.33
2019-05-07T14:30:18.219Z,6.53
2019-05-07T14:32:58.922Z,6.20
2019-05-07T14:35:53.835Z,7.23
2019-05-07T14:38:25.401Z,7.10
2019-05-07T14:40:52.857Z,11.07
2019-05-07T14:43:42.620Z,7.93
2019-05-07T14:46:11.955Z,11.10
2019-05-07T14:48:41.923Z,13.47
2019-05-07T14:51:08.662Z,9.93
2019-05-07T14:53:35.942Z,9.27
2019-05-07T14:56:04.663Z,8.47
2019-05-07T14:58:32.104Z,12.20
2019-05-07T15:00:59.477Z,9.03
2019-05-07T15:03:26.937Z,10.50
2019-05-07T15:05:54.578Z,13.90
2019-05-07T15:08:22.123Z,10.93
2019-05-07T15:10:49.420Z,11.43
2019-05-07T15:13:18.511Z,11.90
2019-05-07T15:15:46.506Z,13.33
2019-05-07T15:18:22.981Z,12.27
2019-05-07T15:20:52.396Z,12.20
2019-05-07T15:23:27.078Z,13.23
2019-05-07T15:25:54.402Z,10.67
2019-05-07T15:28:22.800Z,15.23
2019-05-07T15:30:59.251Z,16.10
2019-05-07T15:33:26.634Z,16.10
2019-05-07T15:35:54.142Z,13.77
2019-05-07T15:38:22.352Z,13.13
2019-05-07T15:40:51.868Z,15.27
2019-05-07T15:43:19.782Z,13.37
2019-05-07T15:45:47.078Z,17.30
2019-05-07T15:48:14.442Z,15.70
2019-05-07T15:50:42.871Z,13.13
2019-05-07T15:53:48.511Z,11.50
2019-05-07T15:56:15.949Z,14.07
2019-05-07T15:58:44.252Z,12.20
2019-05-07T16:01:12.865Z,11.30
2019-05-07T16:03:42.952Z,12.37
2019-05-07T16:06:12.639Z,11.30
2019-05-07T16:08:51.462Z,14.50
2019-05-07T16:11:18.757Z,12.00
2019-05-07T16:13:55.209Z,12.47
2019-05-07T16:16:23.582Z,12.70
2019-05-07T16:19:07.339Z,15.90
2019-05-07T16:21:34.685Z,12.67
2019-05-07T16:24:04.138Z,16.80
2019-05-07T16:26:32.669Z,12.03
2019-05-07T16:29:04.382Z,16.00
2019-05-07T16:31:29.902Z,13.70
2019-05-07T16:33:57.282Z,13.93
2019-05-07T16:36:24.580Z,13.57
2019-05-07T16:38:52.695Z,13.67
2019-05-07T16:41:22.279Z,13.03
2019-05-07T16:43:49.682Z,16.43
2019-05-07T16:46:16.986Z,15.80
2019-05-07T16:48:44.711Z,15.40
2019-05-07T16:51:12.864Z,11.73
2019-05-07T16:53:42.139Z,15.07
2019-05-07T16:56:09.598Z,12.63
2019-05-07T16:58:53.706Z,13.93
2019-05-07T17:01:22.232Z,12.70
2019-05-07T17:03:54.468Z,16.23
2019-05-07T17:06:24.741Z,13.60
2019-05-07T17:09:00.088Z,12.00
2019-05-07T17:11:27.535Z,13.60
2019-05-07T17:13:54.845Z,12.40
2019-05-07T17:16:22.834Z,12.07
2019-05-07T17:18:51.838Z,14.33
2019-05-07T17:21:21.635Z,11.83
2019-05-07T17:23:48.669Z,11.83
2019-05-07T17:26:16.013Z,14.50
2019-05-07T17:28:43.335Z,12.67
2019-05-07T17:31:12.392Z,15.87
2019-05-07T17:33:39.897Z,13.67
2019-05-07T17:36:07.226Z,12.40
2019-05-07T17:38:34.611Z,13.50
2019-05-07T17:41:10.880Z,12.93
2019-05-07T17:43:32.519Z,13.63
2019-05-07T17:46:00.051Z,11.53
2019-05-07T17:48:27.322Z,11.90
2019-05-07T17:51:23.417Z,14.30
2019-05-07T17:53:59.699Z,13.00
2019-05-07T17:56:22.379Z,11.20
2019-05-07T17:58:52.049Z,10.87
2019-05-07T18:01:24.465Z,12.07
2019-05-07T18:03:52.136Z,11.80
2019-05-07T18:06:19.910Z,12.03
2019-05-07T18:08:47.339Z,13.20
2019-05-07T18:11:20.890Z,13.03
2019-05-07T18:13:45.136Z,13.03
2019-05-07T18:16:33.672Z,13.63
2019-05-07T18:19:02.086Z,11.77
2019-05-07T18:21:32.548Z,13.60
2019-05-07T18:24:12.728Z,13.27
2019-05-07T18:26:31.492Z,12.27
2019-05-07T18:28:59.252Z,14.30
2019-05-07T18:31:44.648Z,13.93
2019-05-07T18:34:12.869Z,14.80
2019-05-07T18:36:42.232Z,16.27
2019-05-07T18:39:10.269Z,13.10
2019-05-07T18:41:37.855Z,13.53
2019-05-07T18:44:12.415Z,14.77
2019-05-07T18:46:34.548Z,17.23
2019-05-07T18:49:03.410Z,15.30
2019-05-07T18:51:32.193Z,14.07
2019-05-07T18:53:59.848Z,15.63
2019-05-07T18:56:28.938Z,18.53
2019-05-07T18:58:56.356Z,17.67
2019-05-07T19:01:25.544Z,15.00
2019-05-07T19:03:53.672Z,14.93
2019-05-07T19:06:22.272Z,14.67
2019-05-07T19:08:49.806Z,19.40
2019-05-07T19:11:17.291Z,15.57
2019-05-07T19:13:44.800Z,15.63
2019-05-07T19:16:12.783Z,16.67
2019-05-07T19:18:42.852Z,15.33
2019-05-07T19:21:09.607Z,16.10
2019-05-07T19:23:37.046Z,17.37
2019-05-07T19:26:04.446Z,15.63
2019-05-07T19:28:32.938Z,15.20
2019-05-07T19:31:00.385Z,16.13
2019-05-07T19:33:27.804Z,16.03
2019-05-07T19:35:55.097Z,17.60
2019-05-07T19:38:22.524Z,15.60
2019-05-07T19:40:49.903Z,16.33
2019-05-07T19:43:17.179Z,15.30
2019-05-07T19:45:44.558Z,16.20
2019-05-07T19:48:13.007Z,17.20
2019-05-07T19:50:41.997Z,16.10
2019-05-07T19:53:09.609Z,16.37
2019-05-07T19:55:56.466Z,15.43
2019-05-07T19:58:23.822Z,20.53
2019-05-07T20:00:56.884Z,16.77
2019-05-07T20:03:22.317Z,15.27
2019-05-07T20:05:49.657Z,20.13
2019-05-07T20:08:17.056Z,18.87
2019-05-07T20:10:51.954Z,20.57
2019-05-07T20:13:19.351Z,18.10
2019-05-07T20:15:52.110Z,18.30
2019-05-07T20:18:21.924Z,18.63
2019-05-07T20:20:49.162Z,20.07
2019-05-07T20:23:16.445Z,19.80
2019-05-07T20:25:43.754Z,18.30
2019-05-07T20:28:12.711Z,19.27
2019-05-07T20:30:41.799Z,20.57
2019-05-07T20:33:09.234Z,20.10
2019-05-07T20:35:39.362Z,20.50
2019-05-07T20:38:05.907Z,19.57
2019-05-07T20:40:33.200Z,20.27
2019-05-07T20:43:01.911Z,20.57
2019-05-07T20:45:31.816Z,20.63
2019-05-07T20:47:58.753Z,19.10
2019-05-07T20:50:26.051Z,21.77
2019-05-07T20:52:53.372Z,19.87
2019-05-07T20:55:35.792Z,20.47
2019-05-07T20:58:03.322Z,19.17
2019-05-07T21:00:32.573Z,22.87
2019-05-07T21:03:19.029Z,19.47
2019-05-07T21:05:46.922Z,19.33
2019-05-07T21:08:14.223Z,21.03
2019-05-07T21:10:42.812Z,23.30
2019-05-07T21:13:26.192Z,21.80
2019-05-07T21:15:41.765Z,20.67
2019-05-07T21:18:08.960Z,21.77
2019-05-07T21:20:36.379Z,20.30
2019-05-07T21:23:04.022Z,21.47
2019-05-07T21:25:42.233Z,24.40
2019-05-07T21:28:02.087Z,23.43
2019-05-07T21:30:29.494Z,21.83
2019-05-07T21:32:56.795Z,24.23
2019-05-07T21:35:24.167Z,25.40
2019-05-07T21:37:52.394Z,24.43
2019-05-07T21:40:19.783Z,22.77
2019-05-07T21:42:47.102Z,24.90
2019-05-07T21:45:14.474Z,28.40
2019-05-07T21:47:41.739Z,23.50
2019-05-07T21:50:09.184Z,25.50
2019-05-07T21:52:39.509Z,30.73
2019-05-07T21:55:14.642Z,27.83
2019-05-07T21:57:54.604Z,25.47
2019-05-07T22:00:38.246Z,25.63
2019-05-07T22:03:12.508Z,26.53
2019-05-07T22:05:44.103Z,25.40
2019-05-07T22:08:12.378Z,30.97
2019-05-07T22:10:39.805Z,26.73
2019-05-07T22:13:07.120Z,24.70
2019-05-07T22:15:34.464Z,27.27
2019-05-07T22:18:02.690Z,27.20
2019-05-07T22:20:31.970Z,29.97
2019-05-07T22:22:59.527Z,27.23
2019-05-07T22:25:26.905Z,24.23
2019-05-07T22:27:57.603Z,27.67
2019-05-07T22:30:34.238Z,30.97
2019-05-07T22:33:09.348Z,35.27
2019-05-07T22:35:39.928Z,23.97
2019-05-07T22:38:32.387Z,29.77
2019-05-07T22:41:02.953Z,29.70
2019-05-07T22:43:34.339Z,29.90
2019-05-07T22:46:12.466Z,32.70
2019-05-07T22:48:41.858Z,28.73
2019-05-07T22:51:13.833Z,33.53
2019-05-07T22:53:41.425Z,38.33
2019-05-07T22:56:14.104Z,32.77
2019-05-07T22:58:47.233Z,31.93
2019-05-07T23:01:17.968Z,29.63
2019-05-07T23:03:53.965Z,34.90
2019-05-07T23:06:24.425Z,34.53
2019-05-07T23:08:53.596Z,34.63
2019-05-07T23:11:22.909Z,35.87
2019-05-07T23:13:54.761Z,34.57
2019-05-07T23:16:27.387Z,33.73
2019-05-07T23:18:55.235Z,33.73
2019-05-07T23:21:33.119Z,36.70
2019-05-07T23:24:17.734Z,28.50
2019-05-07T23:26:50.286Z,30.43
2019-05-07T23:29:28.034Z,29.53
2019-05-07T23:32:01.929Z,36.00
2019-05-07T23:34:54.597Z,33.63
2019-05-07T23:41:26.573Z,32.67
